sensor_id;sensor_type;location;lat;lon;timestamp;temperature;humidity
72440;DHT22;60446;50.752;4.352;2023-03-01T00:01:41;-1.70;63.50
72440;DHT22;60446;50.752;4.352;2023-03-01T00:04:22;-1.70;63.50
72440;DHT22;60446;50.752;4.352;2023-03-01T00:06:58;-1.60;63.30
72440;DHT22;60446;50.752;4.352;2023-03-01T00:09:37;-1.60;63.10
72440;DHT22;60446;50.752;4.352;2023-03-01T00:12:08;-1.60;63.00
72440;DHT22;60446;50.752;4.352;2023-03-01T00:14:38;-1.50;63.30
72440;DHT22;60446;50.752;4.352;2023-03-01T00:17:08;-1.60;63.30
72440;DHT22;60446;50.752;4.352;2023-03-01T00:19:40;-1.60;63.30
72440;DHT22;60446;50.752;4.352;2023-03-01T00:22:11;-1.60;63.40
72440;DHT22;60446;50.752;4.352;2023-03-01T00:24:46;-1.60;63.60
72440;DHT22;60446;50.752;4.352;2023-03-01T00:27:24;-1.70;63.70
72440;DHT22;60446;50.752;4.352;2023-03-01T00:29:54;-1.80;64.10
72440;DHT22;60446;50.752;4.352;2023-03-01T00:32:38;-1.80;64.60
72440;DHT22;60446;50.752;4.352;2023-03-01T00:35:08;-1.80;64.40
72440;DHT22;60446;50.752;4.352;2023-03-01T00:37:38;-1.90;64.60
72440;DHT22;60446;50.752;4.352;2023-03-01T00:40:08;-1.90;64.60
72440;DHT22;60446;50.752;4.352;2023-03-01T00:42:40;-2.00;65.00
72440;DHT22;60446;50.752;4.352;2023-03-01T00:45:11;-2.00;65.30
72440;DHT22;60446;50.752;4.352;2023-03-01T00:47:44;-2.00;65.20
72440;DHT22;60446;50.752;4.352;2023-03-01T00:50:19;-2.00;65.30
72440;DHT22;60446;50.752;4.352;2023-03-01T00:52:51;-2.10;65.60
72440;DHT22;60446;50.752;4.352;2023-03-01T00:55:28;-2.10;65.50
72440;DHT22;60446;50.752;4.352;2023-03-01T00:57:59;-2.10;65.80
72440;DHT22;60446;50.752;4.352;2023-03-01T01:00:40;-2.10;65.50
72440;DHT22;60446;50.752;4.352;2023-03-01T01:03:08;-2.10;65.70
72440;DHT22;60446;50.752;4.352;2023-03-01T01:05:39;-2.10;65.60
72440;DHT22;60446;50.752;4.352;2023-03-01T01:08:07;-2.10;65.70
72440;DHT22;60446;50.752;4.352;2023-03-01T01:10:39;-2.10;65.80
72440;DHT22;60446;50.752;4.352;2023-03-01T01:13:17;-2.20;65.80
72440;DHT22;60446;50.752;4.352;2023-03-01T01:16:01;-2.20;65.90
72440;DHT22;60446;50.752;4.352;2023-03-01T01:18:31;-2.20;65.90
72440;DHT22;60446;50.752;4.352;2023-03-01T01:21:39;-2.20;65.90
72440;DHT22;60446;50.752;4.352;2023-03-01T01:24:08;-2.20;65.90
72440;DHT22;60446;50.752;4.352;2023-03-01T01:26:37;-2.20;65.90
72440;DHT22;60446;50.752;4.352;2023-03-01T01:29:12;-2.20;66.00
72440;DHT22;60446;50.752;4.352;2023-03-01T01:31:42;-2.20;66.00
72440;DHT22;60446;50.752;4.352;2023-03-01T01:34:18;-2.10;65.80
72440;DHT22;60446;50.752;4.352;2023-03-01T01:36:53;-2.20;65.70
72440;DHT22;60446;50.752;4.352;2023-03-01T01:39:23;-2.10;65.90
72440;DHT22;60446;50.752;4.352;2023-03-01T01:41:50;-2.20;65.70
72440;DHT22;60446;50.752;4.352;2023-03-01T01:44:22;-2.20;65.80
72440;DHT22;60446;50.752;4.352;2023-03-01T01:47:20;-2.10;65.70
72440;DHT22;60446;50.752;4.352;2023-03-01T01:50:01;-2.20;65.80
72440;DHT22;60446;50.752;4.352;2023-03-01T01:52:35;-2.20;65.90
72440;DHT22;60446;50.752;4.352;2023-03-01T01:55:11;-2.20;65.90
72440;DHT22;60446;50.752;4.352;2023-03-01T01:57:46;-2.20;66.00
72440;DHT22;60446;50.752;4.352;2023-03-01T02:00:27;-2.20;66.00
72440;DHT22;60446;50.752;4.352;2023-03-01T02:03:02;-2.20;65.90
72440;DHT22;60446;50.752;4.352;2023-03-01T02:06:04;-2.20;66.00
72440;DHT22;60446;50.752;4.352;2023-03-01T02:08:38;-2.30;66.10
72440;DHT22;60446;50.752;4.352;2023-03-01T02:15:20;-2.40;66.40
72440;DHT22;60446;50.752;4.352;2023-03-01T02:17:47;-2.40;66.60
72440;DHT22;60446;50.752;4.352;2023-03-01T02:28:47;-2.40;66.50
72440;DHT22;60446;50.752;4.352;2023-03-01T02:31:16;-2.40;66.80
72440;DHT22;60446;50.752;4.352;2023-03-01T02:38:23;-2.50;66.90
72440;DHT22;60446;50.752;4.352;2023-03-01T02:40:51;-2.50;67.20
72440;DHT22;60446;50.752;4.352;2023-03-01T02:43:21;-2.50;67.00
72440;DHT22;60446;50.752;4.352;2023-03-01T02:45:51;-2.60;67.20
72440;DHT22;60446;50.752;4.352;2023-03-01T02:48:53;-2.60;67.30
72440;DHT22;60446;50.752;4.352;2023-03-01T02:56:06;-2.60;67.50
72440;DHT22;60446;50.752;4.352;2023-03-01T02:59:06;-2.70;67.90
72440;DHT22;60446;50.752;4.352;2023-03-01T03:01:35;-2.70;68.00
72440;DHT22;60446;50.752;4.352;2023-03-01T03:04:09;-2.70;68.00
72440;DHT22;60446;50.752;4.352;2023-03-01T03:06:59;-2.70;67.90
72440;DHT22;60446;50.752;4.352;2023-03-01T03:14:15;-2.80;68.10
72440;DHT22;60446;50.752;4.352;2023-03-01T03:16:48;-2.80;68.20
72440;DHT22;60446;50.752;4.352;2023-03-01T03:19:18;-2.80;68.20
72440;DHT22;60446;50.752;4.352;2023-03-01T03:21:47;-2.80;68.20
72440;DHT22;60446;50.752;4.352;2023-03-01T03:24:14;-2.80;68.20
72440;DHT22;60446;50.752;4.352;2023-03-01T03:26:49;-2.80;68.20
72440;DHT22;60446;50.752;4.352;2023-03-01T03:33:46;-2.80;68.20
72440;DHT22;60446;50.752;4.352;2023-03-01T03:36:45;-2.80;68.20
72440;DHT22;60446;50.752;4.352;2023-03-01T03:39:13;-2.90;68.30
72440;DHT22;60446;50.752;4.352;2023-03-01T03:41:40;-2.90;68.50
72440;DHT22;60446;50.752;4.352;2023-03-01T03:44:28;-2.90;68.40
72440;DHT22;60446;50.752;4.352;2023-03-01T03:46:55;-2.90;68.40
72440;DHT22;60446;50.752;4.352;2023-03-01T03:49:24;-2.90;68.70
72440;DHT22;60446;50.752;4.352;2023-03-01T03:52:15;-2.90;68.60
72440;DHT22;60446;50.752;4.352;2023-03-01T03:54:47;-2.90;68.50
72440;DHT22;60446;50.752;4.352;2023-03-01T03:57:18;-2.90;68.60
72440;DHT22;60446;50.752;4.352;2023-03-01T03:59:49;-2.90;68.60
72440;DHT22;60446;50.752;4.352;2023-03-01T04:02:18;-3.00;68.60
72440;DHT22;60446;50.752;4.352;2023-03-01T04:04:51;-3.00;68.70
72440;DHT22;60446;50.752;4.352;2023-03-01T04:07:41;-3.00;68.80
72440;DHT22;60446;50.752;4.352;2023-03-01T04:10:16;-3.00;68.90
72440;DHT22;60446;50.752;4.352;2023-03-01T04:13:08;-3.00;69.10
72440;DHT22;60446;50.752;4.352;2023-03-01T04:15:40;-3.10;69.30
72440;DHT22;60446;50.752;4.352;2023-03-01T04:18:13;-3.10;69.50
72440;DHT22;60446;50.752;4.352;2023-03-01T04:21:04;-3.10;69.60
72440;DHT22;60446;50.752;4.352;2023-03-01T04:23:34;-3.10;69.80
72440;DHT22;60446;50.752;4.352;2023-03-01T04:26:02;-3.10;69.30
72440;DHT22;60446;50.752;4.352;2023-03-01T04:28:42;-3.10;69.20
72440;DHT22;60446;50.752;4.352;2023-03-01T04:31:20;-3.10;69.30
72440;DHT22;60446;50.752;4.352;2023-03-01T04:33:51;-3.10;69.50
72440;DHT22;60446;50.752;4.352;2023-03-01T04:36:25;-3.10;69.40
72440;DHT22;60446;50.752;4.352;2023-03-01T04:38:57;-3.20;69.50
72440;DHT22;60446;50.752;4.352;2023-03-01T04:41:25;-3.10;69.50
72440;DHT22;60446;50.752;4.352;2023-03-01T04:43:55;-3.20;69.70
72440;DHT22;60446;50.752;4.352;2023-03-01T04:46:32;-3.20;69.80
72440;DHT22;60446;50.752;4.352;2023-03-01T04:48:59;-3.20;69.80
72440;DHT22;60446;50.752;4.352;2023-03-01T04:51:27;-3.30;69.90
72440;DHT22;60446;50.752;4.352;2023-03-01T04:53:59;-3.30;70.10
72440;DHT22;60446;50.752;4.352;2023-03-01T04:56:27;-3.30;70.20
72440;DHT22;60446;50.752;4.352;2023-03-01T04:58:57;-3.30;70.40
72440;DHT22;60446;50.752;4.352;2023-03-01T05:01:27;-3.40;70.40
72440;DHT22;60446;50.752;4.352;2023-03-01T05:03:57;-3.40;70.60
72440;DHT22;60446;50.752;4.352;2023-03-01T05:06:29;-3.40;70.60
72440;DHT22;60446;50.752;4.352;2023-03-01T05:08:59;-3.40;70.60
72440;DHT22;60446;50.752;4.352;2023-03-01T05:11:27;-3.40;70.70
72440;DHT22;60446;50.752;4.352;2023-03-01T05:14:02;-3.40;70.80
72440;DHT22;60446;50.752;4.352;2023-03-01T05:16:30;-3.40;70.60
72440;DHT22;60446;50.752;4.352;2023-03-01T05:19:03;-3.40;70.60
72440;DHT22;60446;50.752;4.352;2023-03-01T05:21:52;-3.50;70.80
72440;DHT22;60446;50.752;4.352;2023-03-01T05:24:31;-3.50;71.00
72440;DHT22;60446;50.752;4.352;2023-03-01T05:27:01;-3.50;70.90
72440;DHT22;60446;50.752;4.352;2023-03-01T05:29:30;-3.50;71.00
72440;DHT22;60446;50.752;4.352;2023-03-01T05:32:04;-3.50;71.20
72440;DHT22;60446;50.752;4.352;2023-03-01T05:34:34;-3.50;71.20
72440;DHT22;60446;50.752;4.352;2023-03-01T05:37:06;-3.50;71.10
72440;DHT22;60446;50.752;4.352;2023-03-01T05:39:36;-3.50;71.10
72440;DHT22;60446;50.752;4.352;2023-03-01T05:42:05;-3.50;71.30
72440;DHT22;60446;50.752;4.352;2023-03-01T05:44:38;-3.50;71.30
72440;DHT22;60446;50.752;4.352;2023-03-01T05:47:05;-3.50;71.20
72440;DHT22;60446;50.752;4.352;2023-03-01T05:49:33;-3.50;71.20
72440;DHT22;60446;50.752;4.352;2023-03-01T05:52:04;-3.50;71.20
72440;DHT22;60446;50.752;4.352;2023-03-01T05:54:32;-3.50;71.20
72440;DHT22;60446;50.752;4.352;2023-03-01T05:57:02;-3.50;71.40
72440;DHT22;60446;50.752;4.352;2023-03-01T05:59:29;-3.60;71.30
72440;DHT22;60446;50.752;4.352;2023-03-01T06:01:56;-3.60;71.40
72440;DHT22;60446;50.752;4.352;2023-03-01T06:04:24;-3.60;71.60
72440;DHT22;60446;50.752;4.352;2023-03-01T06:06:51;-3.60;71.50
72440;DHT22;60446;50.752;4.352;2023-03-01T06:09:19;-3.60;71.40
72440;DHT22;60446;50.752;4.352;2023-03-01T06:11:46;-3.70;71.80
72440;DHT22;60446;50.752;4.352;2023-03-01T06:14:17;-3.70;72.10
72440;DHT22;60446;50.752;4.352;2023-03-01T06:16:46;-3.70;72.00
72440;DHT22;60446;50.752;4.352;2023-03-01T06:19:13;-3.70;72.00
72440;DHT22;60446;50.752;4.352;2023-03-01T06:21:44;-3.80;72.10
72440;DHT22;60446;50.752;4.352;2023-03-01T06:24:15;-3.80;72.20
72440;DHT22;60446;50.752;4.352;2023-03-01T06:26:52;-3.80;72.30
72440;DHT22;60446;50.752;4.352;2023-03-01T06:29:22;-3.80;72.20
72440;DHT22;60446;50.752;4.352;2023-03-01T06:31:50;-3.80;72.30
72440;DHT22;60446;50.752;4.352;2023-03-01T06:34:20;-3.80;72.30
72440;DHT22;60446;50.752;4.352;2023-03-01T06:36:48;-3.80;72.40
72440;DHT22;60446;50.752;4.352;2023-03-01T06:39:15;-3.80;72.50
72440;DHT22;60446;50.752;4.352;2023-03-01T06:41:44;-3.80;72.60
72440;DHT22;60446;50.752;4.352;2023-03-01T06:44:14;-3.80;72.70
72440;DHT22;60446;50.752;4.352;2023-03-01T06:46:43;-3.80;72.70
72440;DHT22;60446;50.752;4.352;2023-03-01T06:49:13;-3.80;72.70
72440;DHT22;60446;50.752;4.352;2023-03-01T06:51:47;-3.80;72.50
72440;DHT22;60446;50.752;4.352;2023-03-01T06:54:27;-3.80;72.50
72440;DHT22;60446;50.752;4.352;2023-03-01T06:56:57;-3.80;72.60
72440;DHT22;60446;50.752;4.352;2023-03-01T06:59:27;-3.80;72.50
72440;DHT22;60446;50.752;4.352;2023-03-01T07:01:58;-3.80;72.40
72440;DHT22;60446;50.752;4.352;2023-03-01T07:04:39;-3.80;72.50
72440;DHT22;60446;50.752;4.352;2023-03-01T07:07:09;-3.70;72.60
72440;DHT22;60446;50.752;4.352;2023-03-01T07:09:53;-3.70;72.60
72440;DHT22;60446;50.752;4.352;2023-03-01T07:12:36;-3.60;72.50
72440;DHT22;60446;50.752;4.352;2023-03-01T07:15:08;-3.60;72.10
72440;DHT22;60446;50.752;4.352;2023-03-01T07:17:42;-3.60;72.10
72440;DHT22;60446;50.752;4.352;2023-03-01T07:20:20;-3.50;72.10
72440;DHT22;60446;50.752;4.352;2023-03-01T07:22:54;-3.60;72.30
72440;DHT22;60446;50.752;4.352;2023-03-01T07:25:29;-3.50;72.30
72440;DHT22;60446;50.752;4.352;2023-03-01T07:27:59;-3.40;72.00
72440;DHT22;60446;50.752;4.352;2023-03-01T07:30:34;-3.40;71.90
72440;DHT22;60446;50.752;4.352;2023-03-01T07:33:26;-3.40;71.90
72440;DHT22;60446;50.752;4.352;2023-03-01T07:36:22;-3.30;71.60
72440;DHT22;60446;50.752;4.352;2023-03-01T07:39:09;-3.20;71.40
72440;DHT22;60446;50.752;4.352;2023-03-01T07:41:42;-3.20;71.50
72440;DHT22;60446;50.752;4.352;2023-03-01T07:44:22;-3.10;71.30
72440;DHT22;60446;50.752;4.352;2023-03-01T07:47:07;-3.10;71.40
72440;DHT22;60446;50.752;4.352;2023-03-01T07:49:46;-3.00;71.20
72440;DHT22;60446;50.752;4.352;2023-03-01T07:52:22;-3.00;71.60
72440;DHT22;60446;50.752;4.352;2023-03-01T07:54:59;-2.90;70.90
72440;DHT22;60446;50.752;4.352;2023-03-01T08:01:34;-2.70;70.00
72440;DHT22;60446;50.752;4.352;2023-03-01T08:04:01;-2.50;69.60
72440;DHT22;60446;50.752;4.352;2023-03-01T08:06:29;-2.50;69.40
72440;DHT22;60446;50.752;4.352;2023-03-01T08:08:56;-2.40;69.10
72440;DHT22;60446;50.752;4.352;2023-03-01T08:11:29;-2.30;68.80
72440;DHT22;60446;50.752;4.352;2023-03-01T08:14:26;-2.20;68.90
72440;DHT22;60446;50.752;4.352;2023-03-01T08:17:06;-2.20;69.00
72440;DHT22;60446;50.752;4.352;2023-03-01T08:19:43;-2.00;68.30
72440;DHT22;60446;50.752;4.352;2023-03-01T08:22:20;-2.00;68.00
72440;DHT22;60446;50.752;4.352;2023-03-01T08:24:47;-1.90;67.50
72440;DHT22;60446;50.752;4.352;2023-03-01T08:27:22;-1.80;68.10
72440;DHT22;60446;50.752;4.352;2023-03-01T08:29:58;-1.70;66.90
72440;DHT22;60446;50.752;4.352;2023-03-01T08:32:38;-1.60;66.70
72440;DHT22;60446;50.752;4.352;2023-03-01T08:35:17;-1.60;66.70
72440;DHT22;60446;50.752;4.352;2023-03-01T08:37:48;-1.50;66.30
72440;DHT22;60446;50.752;4.352;2023-03-01T08:40:27;-1.40;66.40
72440;DHT22;60446;50.752;4.352;2023-03-01T08:43:01;-1.30;66.20
72440;DHT22;60446;50.752;4.352;2023-03-01T08:48:46;-1.00;65.20
72440;DHT22;60446;50.752;4.352;2023-03-01T08:51:26;-0.90;63.80
72440;DHT22;60446;50.752;4.352;2023-03-01T08:54:19;-0.80;64.50
72440;DHT22;60446;50.752;4.352;2023-03-01T08:56:57;-0.80;63.80
72440;DHT22;60446;50.752;4.352;2023-03-01T09:00:15;-0.70;63.70
72440;DHT22;60446;50.752;4.352;2023-03-01T09:03:15;-0.60;62.70
72440;DHT22;60446;50.752;4.352;2023-03-01T09:05:43;-0.50;62.90
72440;DHT22;60446;50.752;4.352;2023-03-01T09:08:22;-0.40;62.50
72440;DHT22;60446;50.752;4.352;2023-03-01T09:10:58;-0.30;61.20
72440;DHT22;60446;50.752;4.352;2023-03-01T09:13:57;-0.30;62.40
72440;DHT22;60446;50.752;4.352;2023-03-01T09:17:05;-0.20;62.90
72440;DHT22;60446;50.752;4.352;2023-03-01T09:19:45;-0.10;61.40
72440;DHT22;60446;50.752;4.352;2023-03-01T09:22:23;0.00;61.30
72440;DHT22;60446;50.752;4.352;2023-03-01T09:25:04;0.00;60.50
72440;DHT22;60446;50.752;4.352;2023-03-01T09:27:36;0.10;61.80
72440;DHT22;60446;50.752;4.352;2023-03-01T09:30:30;0.20;60.50
72440;DHT22;60446;50.752;4.352;2023-03-01T09:33:02;0.40;60.90
72440;DHT22;60446;50.752;4.352;2023-03-01T09:36:07;0.40;60.40
72440;DHT22;60446;50.752;4.352;2023-03-01T09:38:59;0.50;60.00
72440;DHT22;60446;50.752;4.352;2023-03-01T09:41:45;0.50;60.10
72440;DHT22;60446;50.752;4.352;2023-03-01T09:47:30;0.60;60.50
72440;DHT22;60446;50.752;4.352;2023-03-01T09:50:21;0.70;59.40
72440;DHT22;60446;50.752;4.352;2023-03-01T09:53:15;0.70;59.80
72440;DHT22;60446;50.752;4.352;2023-03-01T09:56:16;0.80;58.80
72440;DHT22;60446;50.752;4.352;2023-03-01T09:59:29;0.80;58.20
72440;DHT22;60446;50.752;4.352;2023-03-01T10:04:51;0.90;58.40
72440;DHT22;60446;50.752;4.352;2023-03-01T10:07:27;1.00;57.50
72440;DHT22;60446;50.752;4.352;2023-03-01T10:09:55;1.10;58.00
72440;DHT22;60446;50.752;4.352;2023-03-01T10:12:26;1.20;57.70
72440;DHT22;60446;50.752;4.352;2023-03-01T10:15:39;1.20;57.50
72440;DHT22;60446;50.752;4.352;2023-03-01T10:18:18;1.30;56.70
72440;DHT22;60446;50.752;4.352;2023-03-01T10:21:00;1.40;58.10
72440;DHT22;60446;50.752;4.352;2023-03-01T10:23:35;1.60;58.20
72440;DHT22;60446;50.752;4.352;2023-03-01T10:26:09;1.60;56.50
72440;DHT22;60446;50.752;4.352;2023-03-01T10:29:12;1.60;56.40
72440;DHT22;60446;50.752;4.352;2023-03-01T10:31:49;1.70;55.50
72440;DHT22;60446;50.752;4.352;2023-03-01T10:34:20;1.70;56.10
72440;DHT22;60446;50.752;4.352;2023-03-01T10:36:56;1.80;55.50
72440;DHT22;60446;50.752;4.352;2023-03-01T10:39:29;1.80;56.00
72440;DHT22;60446;50.752;4.352;2023-03-01T10:41:59;1.80;56.00
72440;DHT22;60446;50.752;4.352;2023-03-01T10:44:36;1.90;55.10
72440;DHT22;60446;50.752;4.352;2023-03-01T10:47:21;1.80;56.80
72440;DHT22;60446;50.752;4.352;2023-03-01T10:50:04;1.90;55.30
72440;DHT22;60446;50.752;4.352;2023-03-01T10:52:36;1.90;57.30
72440;DHT22;60446;50.752;4.352;2023-03-01T10:57:43;2.20;55.40
72440;DHT22;60446;50.752;4.352;2023-03-01T11:00:26;2.30;55.70
72440;DHT22;60446;50.752;4.352;2023-03-01T11:03:03;2.30;56.10
72440;DHT22;60446;50.752;4.352;2023-03-01T11:08:49;2.40;54.60
72440;DHT22;60446;50.752;4.352;2023-03-01T11:11:34;2.40;54.40
72440;DHT22;60446;50.752;4.352;2023-03-01T11:14:16;2.40;53.70
72440;DHT22;60446;50.752;4.352;2023-03-01T11:17:12;2.40;55.50
72440;DHT22;60446;50.752;4.352;2023-03-01T11:23:03;2.60;54.60
72440;DHT22;60446;50.752;4.352;2023-03-01T11:25:41;2.60;52.90
72440;DHT22;60446;50.752;4.352;2023-03-01T11:28:17;2.70;54.70
72440;DHT22;60446;50.752;4.352;2023-03-01T11:33:54;2.80;53.10
72440;DHT22;60446;50.752;4.352;2023-03-01T11:42:37;2.90;53.40
72440;DHT22;60446;50.752;4.352;2023-03-01T11:56:34;3.30;52.60
72440;DHT22;60446;50.752;4.352;2023-03-01T12:08:47;3.60;50.70
72440;DHT22;60446;50.752;4.352;2023-03-01T12:11:35;3.60;50.70
72440;DHT22;60446;50.752;4.352;2023-03-01T12:21:19;3.90;50.40
72440;DHT22;60446;50.752;4.352;2023-03-01T12:26:20;3.80;50.20
72440;DHT22;60446;50.752;4.352;2023-03-01T12:38:32;4.00;48.60
72440;DHT22;60446;50.752;4.352;2023-03-01T12:41:15;4.10;50.00
72440;DHT22;60446;50.752;4.352;2023-03-01T12:47:46;4.10;48.70
72440;DHT22;60446;50.752;4.352;2023-03-01T12:56:28;4.30;49.00
72440;DHT22;60446;50.752;4.352;2023-03-01T12:59:30;4.30;49.20
72440;DHT22;60446;50.752;4.352;2023-03-01T13:02:27;4.30;47.10
72440;DHT22;60446;50.752;4.352;2023-03-01T13:05:26;4.40;47.90
72440;DHT22;60446;50.752;4.352;2023-03-01T13:08:24;4.40;47.50
72440;DHT22;60446;50.752;4.352;2023-03-01T13:11:04;4.50;46.20
72440;DHT22;60446;50.752;4.352;2023-03-01T13:13:33;4.50;47.00
72440;DHT22;60446;50.752;4.352;2023-03-01T13:19:20;4.50;47.30
72440;DHT22;60446;50.752;4.352;2023-03-01T13:21:50;4.60;46.90
72440;DHT22;60446;50.752;4.352;2023-03-01T13:29:58;4.80;46.00
72440;DHT22;60446;50.752;4.352;2023-03-01T13:32:32;4.80;46.90
72440;DHT22;60446;50.752;4.352;2023-03-01T13:41:17;4.80;46.90
72440;DHT22;60446;50.752;4.352;2023-03-01T13:44:34;5.00;46.60
72440;DHT22;60446;50.752;4.352;2023-03-01T13:52:45;5.00;45.30
72440;DHT22;60446;50.752;4.352;2023-03-01T13:55:21;4.90;44.80
72440;DHT22;60446;50.752;4.352;2023-03-01T13:57:59;4.90;45.00
72440;DHT22;60446;50.752;4.352;2023-03-01T14:00:41;5.00;47.10
72440;DHT22;60446;50.752;4.352;2023-03-01T14:03:16;5.20;45.60
72440;DHT22;60446;50.752;4.352;2023-03-01T14:06:01;5.20;45.10
72440;DHT22;60446;50.752;4.352;2023-03-01T14:08:48;5.20;45.20
72440;DHT22;60446;50.752;4.352;2023-03-01T14:11:59;5.20;45.50
72440;DHT22;60446;50.752;4.352;2023-03-01T14:14:52;5.20;45.60
72440;DHT22;60446;50.752;4.352;2023-03-01T14:20:27;5.30;45.40
72440;DHT22;60446;50.752;4.352;2023-03-01T14:23:02;5.30;44.50
72440;DHT22;60446;50.752;4.352;2023-03-01T14:25:37;5.20;44.60
72440;DHT22;60446;50.752;4.352;2023-03-01T14:28:17;5.20;44.60
72440;DHT22;60446;50.752;4.352;2023-03-01T14:30:48;5.30;44.90
72440;DHT22;60446;50.752;4.352;2023-03-01T14:33:23;5.30;46.20
72440;DHT22;60446;50.752;4.352;2023-03-01T14:35:57;5.40;45.10
72440;DHT22;60446;50.752;4.352;2023-03-01T14:38:41;5.30;45.30
72440;DHT22;60446;50.752;4.352;2023-03-01T14:41:15;5.30;45.20
72440;DHT22;60446;50.752;4.352;2023-03-01T14:43:54;5.30;44.70
72440;DHT22;60446;50.752;4.352;2023-03-01T14:49:20;5.30;44.90
72440;DHT22;60446;50.752;4.352;2023-03-01T14:52:37;5.30;44.90
72440;DHT22;60446;50.752;4.352;2023-03-01T14:54:53;5.40;45.40
72440;DHT22;60446;50.752;4.352;2023-03-01T14:57:24;5.50;45.60
72440;DHT22;60446;50.752;4.352;2023-03-01T14:59:54;5.60;45.50
72440;DHT22;60446;50.752;4.352;2023-03-01T15:02:26;5.70;44.80
72440;DHT22;60446;50.752;4.352;2023-03-01T15:05:01;5.70;45.20
72440;DHT22;60446;50.752;4.352;2023-03-01T15:07:42;5.70;44.40
72440;DHT22;60446;50.752;4.352;2023-03-01T15:10:24;5.60;43.30
72440;DHT22;60446;50.752;4.352;2023-03-01T15:13:13;5.40;45.00
72440;DHT22;60446;50.752;4.352;2023-03-01T15:15:48;5.40;44.40
72440;DHT22;60446;50.752;4.352;2023-03-01T15:18:22;5.30;44.10
72440;DHT22;60446;50.752;4.352;2023-03-01T15:20:53;5.20;45.00
72440;DHT22;60446;50.752;4.352;2023-03-01T15:23:26;5.20;45.10
72440;DHT22;60446;50.752;4.352;2023-03-01T15:25:55;5.10;44.50
72440;DHT22;60446;50.752;4.352;2023-03-01T15:28:36;5.10;45.20
72440;DHT22;60446;50.752;4.352;2023-03-01T15:31:26;5.10;44.60
72440;DHT22;60446;50.752;4.352;2023-03-01T15:36:54;5.00;45.40
72440;DHT22;60446;50.752;4.352;2023-03-01T15:39:41;4.90;45.70
72440;DHT22;60446;50.752;4.352;2023-03-01T15:47:48;4.90;45.30
72440;DHT22;60446;50.752;4.352;2023-03-01T15:50:29;4.80;45.80
72440;DHT22;60446;50.752;4.352;2023-03-01T15:53:10;4.90;45.20
72440;DHT22;60446;50.752;4.352;2023-03-01T15:55:42;4.80;45.30
72440;DHT22;60446;50.752;4.352;2023-03-01T15:58:21;4.80;46.60
72440;DHT22;60446;50.752;4.352;2023-03-01T16:00:52;4.90;46.30
72440;DHT22;60446;50.752;4.352;2023-03-01T16:03:28;4.90;46.20
72440;DHT22;60446;50.752;4.352;2023-03-01T16:06:00;4.80;46.20
72440;DHT22;60446;50.752;4.352;2023-03-01T16:08:27;4.80;45.30
72440;DHT22;60446;50.752;4.352;2023-03-01T16:10:56;4.70;46.30
72440;DHT22;60446;50.752;4.352;2023-03-01T16:13:41;4.80;46.40
72440;DHT22;60446;50.752;4.352;2023-03-01T16:16:10;4.90;45.90
72440;DHT22;60446;50.752;4.352;2023-03-01T16:18:45;4.90;45.60
72440;DHT22;60446;50.752;4.352;2023-03-01T16:21:23;4.80;45.70
72440;DHT22;60446;50.752;4.352;2023-03-01T16:23:52;4.70;46.70
72440;DHT22;60446;50.752;4.352;2023-03-01T16:26:33;4.60;46.30
72440;DHT22;60446;50.752;4.352;2023-03-01T16:29:06;4.50;46.60
72440;DHT22;60446;50.752;4.352;2023-03-01T16:31:51;4.50;47.00
72440;DHT22;60446;50.752;4.352;2023-03-01T16:34:40;4.40;46.80
72440;DHT22;60446;50.752;4.352;2023-03-01T16:37:16;4.40;46.80
72440;DHT22;60446;50.752;4.352;2023-03-01T16:39:53;4.40;46.80
72440;DHT22;60446;50.752;4.352;2023-03-01T16:43:17;4.30;46.90
72440;DHT22;60446;50.752;4.352;2023-03-01T16:45:55;4.20;46.80
72440;DHT22;60446;50.752;4.352;2023-03-01T16:48:35;4.20;46.60
72440;DHT22;60446;50.752;4.352;2023-03-01T16:51:04;4.10;47.90
72440;DHT22;60446;50.752;4.352;2023-03-01T16:53:35;3.90;47.70
72440;DHT22;60446;50.752;4.352;2023-03-01T16:56:05;3.90;48.80
72440;DHT22;60446;50.752;4.352;2023-03-01T16:58:35;3.90;47.90
72440;DHT22;60446;50.752;4.352;2023-03-01T17:01:12;3.90;48.10
72440;DHT22;60446;50.752;4.352;2023-03-01T17:03:44;3.90;47.70
72440;DHT22;60446;50.752;4.352;2023-03-01T17:06:16;3.70;48.90
72440;DHT22;60446;50.752;4.352;2023-03-01T17:08:44;3.60;48.30
72440;DHT22;60446;50.752;4.352;2023-03-01T17:11:16;3.60;48.40
72440;DHT22;60446;50.752;4.352;2023-03-01T17:13:46;3.70;48.20
72440;DHT22;60446;50.752;4.352;2023-03-01T17:16:22;3.60;49.30
72440;DHT22;60446;50.752;4.352;2023-03-01T17:18:53;3.50;48.90
72440;DHT22;60446;50.752;4.352;2023-03-01T17:21:20;3.50;48.30
72440;DHT22;60446;50.752;4.352;2023-03-01T17:23:48;3.50;48.40
72440;DHT22;60446;50.752;4.352;2023-03-01T17:26:16;3.50;48.80
72440;DHT22;60446;50.752;4.352;2023-03-01T17:28:43;3.30;49.20
72440;DHT22;60446;50.752;4.352;2023-03-01T17:31:13;3.30;49.90
72440;DHT22;60446;50.752;4.352;2023-03-01T17:33:41;3.20;49.90
72440;DHT22;60446;50.752;4.352;2023-03-01T17:36:09;3.10;49.70
72440;DHT22;60446;50.752;4.352;2023-03-01T17:38:36;3.10;50.00
72440;DHT22;60446;50.752;4.352;2023-03-01T17:41:04;3.00;50.50
72440;DHT22;60446;50.752;4.352;2023-03-01T17:43:32;2.90;51.10
72440;DHT22;60446;50.752;4.352;2023-03-01T17:46:01;2.70;51.30
72440;DHT22;60446;50.752;4.352;2023-03-01T17:48:28;2.70;51.60
72440;DHT22;60446;50.752;4.352;2023-03-01T17:50:56;2.60;51.60
72440;DHT22;60446;50.752;4.352;2023-03-01T17:53:24;2.60;51.80
72440;DHT22;60446;50.752;4.352;2023-03-01T17:56:02;2.60;52.00
72440;DHT22;60446;50.752;4.352;2023-03-01T17:58:35;2.60;52.00
72440;DHT22;60446;50.752;4.352;2023-03-01T18:01:10;2.60;52.20
72440;DHT22;60446;50.752;4.352;2023-03-01T18:03:44;2.50;52.80
72440;DHT22;60446;50.752;4.352;2023-03-01T18:06:34;2.40;52.90
72440;DHT22;60446;50.752;4.352;2023-03-01T18:09:03;2.40;52.50
72440;DHT22;60446;50.752;4.352;2023-03-01T18:11:32;2.40;53.30
72440;DHT22;60446;50.752;4.352;2023-03-01T18:14:17;2.40;52.60
72440;DHT22;60446;50.752;4.352;2023-03-01T18:16:47;2.50;52.60
72440;DHT22;60446;50.752;4.352;2023-03-01T18:19:18;2.50;53.00
72440;DHT22;60446;50.752;4.352;2023-03-01T18:22:13;2.50;53.00
72440;DHT22;60446;50.752;4.352;2023-03-01T18:24:51;2.40;53.00
72440;DHT22;60446;50.752;4.352;2023-03-01T18:27:21;2.40;52.80
72440;DHT22;60446;50.752;4.352;2023-03-01T18:29:58;2.40;53.30
72440;DHT22;60446;50.752;4.352;2023-03-01T18:32:43;2.40;53.00
72440;DHT22;60446;50.752;4.352;2023-03-01T18:35:13;2.40;53.20
72440;DHT22;60446;50.752;4.352;2023-03-01T18:37:54;2.40;53.20
72440;DHT22;60446;50.752;4.352;2023-03-01T18:40:24;2.50;53.00
72440;DHT22;60446;50.752;4.352;2023-03-01T18:43:23;2.50;53.30
72440;DHT22;60446;50.752;4.352;2023-03-01T18:46:45;2.40;53.20
72440;DHT22;60446;50.752;4.352;2023-03-01T18:49:30;2.30;54.00
72440;DHT22;60446;50.752;4.352;2023-03-01T18:52:21;2.20;54.00
72440;DHT22;60446;50.752;4.352;2023-03-01T18:55:01;2.10;54.40
72440;DHT22;60446;50.752;4.352;2023-03-01T18:58:00;2.10;54.30
72440;DHT22;60446;50.752;4.352;2023-03-01T19:00:55;2.00;54.40
72440;DHT22;60446;50.752;4.352;2023-03-01T19:03:27;2.00;54.50
72440;DHT22;60446;50.752;4.352;2023-03-01T19:06:26;1.90;55.30